sensor_id;sensor_type;location;lat;lon;timestamp;temperature;humidity
44117;DHT22;29781;49.480;8.512;2023-03-14T00:00:37;11.40;99.90
44117;DHT22;29781;49.480;8.512;2023-03-14T00:03:03;11.40;99.90
44117;DHT22;29781;49.480;8.512;2023-03-14T00:05:28;11.40;99.90
44117;DHT22;29781;49.480;8.512;2023-03-14T00:07:53;11.50;99.90
44117;DHT22;29781;49.480;8.512;2023-03-14T00:10:19;11.40;99.90
44117;DHT22;29781;49.480;8.512;2023-03-14T00:12:45;11.40;99.90
44117;DHT22;29781;49.480;8.512;2023-03-14T00:15:11;11.40;99.90
44117;DHT22;29781;49.480;8.512;2023-03-14T00:17:36;11.40;99.90
44117;DHT22;29781;49.480;8.512;2023-03-14T00:20:06;11.40;99.90
44117;DHT22;29781;49.480;8.512;2023-03-14T00:22:40;11.40;99.90
44117;DHT22;29781;49.480;8.512;2023-03-14T00:25:05;11.40;99.90
44117;DHT22;29781;49.480;8.512;2023-03-14T00:27:31;11.40;99.90
44117;DHT22;29781;49.480;8.512;2023-03-14T00:29:57;11.40;99.90
44117;DHT22;29781;49.480;8.512;2023-03-14T00:32:22;11.50;99.90
44117;DHT22;29781;49.480;8.512;2023-03-14T00:34:47;11.50;99.90
44117;DHT22;29781;49.480;8.512;2023-03-14T00:37:13;11.40;99.90
44117;DHT22;29781;49.480;8.512;2023-03-14T00:39:39;11.50;99.90
44117;DHT22;29781;49.480;8.512;2023-03-14T00:42:04;11.50;99.90
44117;DHT22;29781;49.480;8.512;2023-03-14T00:44:30;11.50;99.90
44117;DHT22;29781;49.480;8.512;2023-03-14T00:46:55;11.40;99.90
44117;DHT22;29781;49.480;8.512;2023-03-14T00:49:22;11.30;99.90
44117;DHT22;29781;49.480;8.512;2023-03-14T00:51:47;11.40;99.90
44117;DHT22;29781;49.480;8.512;2023-03-14T00:54:13;11.40;99.90
44117;DHT22;29781;49.480;8.512;2023-03-14T00:56:38;11.40;99.90
44117;DHT22;29781;49.480;8.512;2023-03-14T00:59:04;11.50;99.90
44117;DHT22;29781;49.480;8.512;2023-03-14T01:16:57;11.40;99.90
44117;DHT22;29781;49.480;8.512;2023-03-14T01:19:28;11.40;99.90
44117;DHT22;29781;49.480;8.512;2023-03-14T01:21:54;11.40;99.90
44117;DHT22;29781;49.480;8.512;2023-03-14T01:24:20;11.40;99.90
44117;DHT22;29781;49.480;8.512;2023-03-14T01:26:45;11.40;99.90
44117;DHT22;29781;49.480;8.512;2023-03-14T01:29:11;11.40;99.90
44117;DHT22;29781;49.480;8.512;2023-03-14T01:31:36;11.40;99.90
44117;DHT22;29781;49.480;8.512;2023-03-14T01:34:02;11.40;99.90
44117;DHT22;29781;49.480;8.512;2023-03-14T01:36:27;11.40;99.90
44117;DHT22;29781;49.480;8.512;2023-03-14T01:38:53;11.40;99.90
44117;DHT22;29781;49.480;8.512;2023-03-14T01:41:20;11.40;99.90
44117;DHT22;29781;49.480;8.512;2023-03-14T01:43:45;11.40;99.90
44117;DHT22;29781;49.480;8.512;2023-03-14T01:51:50;11.40;99.90
44117;DHT22;29781;49.480;8.512;2023-03-14T01:56:43;11.40;99.90
44117;DHT22;29781;49.480;8.512;2023-03-14T01:59:09;11.40;99.90
44117;DHT22;29781;49.480;8.512;2023-03-14T02:01:35;11.40;99.90
44117;DHT22;29781;49.480;8.512;2023-03-14T02:04:02;11.40;99.90
44117;DHT22;29781;49.480;8.512;2023-03-14T02:06:31;11.40;99.90
44117;DHT22;29781;49.480;8.512;2023-03-14T02:08:59;11.40;99.90
44117;DHT22;29781;49.480;8.512;2023-03-14T02:11:26;11.40;99.90
44117;DHT22;29781;49.480;8.512;2023-03-14T02:13:53;11.30;99.90
44117;DHT22;29781;49.480;8.512;2023-03-14T02:16:19;11.40;99.90
44117;DHT22;29781;49.480;8.512;2023-03-14T02:18:44;11.40;99.90
44117;DHT22;29781;49.480;8.512;2023-03-14T02:26:16;11.40;99.90
44117;DHT22;29781;49.480;8.512;2023-03-14T02:28:44;11.40;99.90
44117;DHT22;29781;49.480;8.512;2023-03-14T02:31:10;11.30;99.90
44117;DHT22;29781;49.480;8.512;2023-03-14T02:33:36;11.40;99.90
44117;DHT22;29781;49.480;8.512;2023-03-14T02:36:04;11.40;99.90
44117;DHT22;29781;49.480;8.512;2023-03-14T02:38:43;11.40;99.90
44117;DHT22;29781;49.480;8.512;2023-03-14T02:41:11;11.50;99.90
44117;DHT22;29781;49.480;8.512;2023-03-14T02:43:36;11.40;99.90
44117;DHT22;29781;49.480;8.512;2023-03-14T02:46:02;11.40;99.90
44117;DHT22;29781;49.480;8.512;2023-03-14T02:48:30;11.40;99.90
44117;DHT22;29781;49.480;8.512;2023-03-14T02:50:57;11.40;99.90
44117;DHT22;29781;49.480;8.512;2023-03-14T02:53:28;11.40;99.90
44117;DHT22;29781;49.480;8.512;2023-03-14T02:55:54;11.40;99.90
44117;DHT22;29781;49.480;8.512;2023-03-14T02:58:20;11.30;99.90
44117;DHT22;29781;49.480;8.512;2023-03-14T03:00:46;11.30;99.90
44117;DHT22;29781;49.480;8.512;2023-03-14T03:03:11;11.20;99.90
44117;DHT22;29781;49.480;8.512;2023-03-14T03:05:37;11.20;99.90
44117;DHT22;29781;49.480;8.512;2023-03-14T03:08:03;11.20;99.90
44117;DHT22;29781;49.480;8.512;2023-03-14T03:10:28;11.10;99.90
44117;DHT22;29781;49.480;8.512;2023-03-14T03:12:54;11.20;99.90
44117;DHT22;29781;49.480;8.512;2023-03-14T03:15:20;11.20;99.90
44117;DHT22;29781;49.480;8.512;2023-03-14T03:17:45;11.20;99.90
44117;DHT22;29781;49.480;8.512;2023-03-14T03:20:11;11.30;99.90
44117;DHT22;29781;49.480;8.512;2023-03-14T03:22:37;11.30;99.90
44117;DHT22;29781;49.480;8.512;2023-03-14T03:25:04;11.20;99.90
44117;DHT22;29781;49.480;8.512;2023-03-14T03:27:30;11.20;99.90
44117;DHT22;29781;49.480;8.512;2023-03-14T03:29:57;11.20;99.90
44117;DHT22;29781;49.480;8.512;2023-03-14T03:32:22;11.20;99.90
44117;DHT22;29781;49.480;8.512;2023-03-14T03:34:48;11.20;99.90
44117;DHT22;29781;49.480;8.512;2023-03-14T03:37:13;11.20;99.90
44117;DHT22;29781;49.480;8.512;2023-03-14T03:39:38;11.20;99.90
44117;DHT22;29781;49.480;8.512;2023-03-14T03:42:04;11.20;99.90
44117;DHT22;29781;49.480;8.512;2023-03-14T03:44:29;11.10;99.90
44117;DHT22;29781;49.480;8.512;2023-03-14T03:46:55;11.10;99.90
44117;DHT22;29781;49.480;8.512;2023-03-14T03:49:20;11.10;99.90
44117;DHT22;29781;49.480;8.512;2023-03-14T03:51:46;11.10;99.90
44117;DHT22;29781;49.480;8.512;2023-03-14T03:54:11;11.10;99.90
44117;DHT22;29781;49.480;8.512;2023-03-14T03:56:36;11.10;99.90
44117;DHT22;29781;49.480;8.512;2023-03-14T03:59:02;11.10;99.90
44117;DHT22;29781;49.480;8.512;2023-03-14T04:01:27;11.00;99.90
44117;DHT22;29781;49.480;8.512;2023-03-14T04:03:53;11.00;99.90
44117;DHT22;29781;49.480;8.512;2023-03-14T04:06:18;11.00;99.90
44117;DHT22;29781;49.480;8.512;2023-03-14T04:08:44;11.00;99.90
44117;DHT22;29781;49.480;8.512;2023-03-14T04:11:09;11.00;99.90
44117;DHT22;29781;49.480;8.512;2023-03-14T04:13:35;11.00;99.90
44117;DHT22;29781;49.480;8.512;2023-03-14T04:16:00;10.90;99.90
44117;DHT22;29781;49.480;8.512;2023-03-14T04:18:26;10.90;99.90
44117;DHT22;29781;49.480;8.512;2023-03-14T04:20:52;10.90;99.90
44117;DHT22;29781;49.480;8.512;2023-03-14T04:23:18;11.00;99.90
44117;DHT22;29781;49.480;8.512;2023-03-14T04:25:43;11.00;99.90
44117;DHT22;29781;49.480;8.512;2023-03-14T04:28:08;11.00;99.90
44117;DHT22;29781;49.480;8.512;2023-03-14T04:30:34;11.00;99.90
44117;DHT22;29781;49.480;8.512;2023-03-14T04:32:59;10.90;99.90
44117;DHT22;29781;49.480;8.512;2023-03-14T04:35:25;10.90;99.90
44117;DHT22;29781;49.480;8.512;2023-03-14T04:37:50;11.00;99.90
44117;DHT22;29781;49.480;8.512;2023-03-14T04:40:17;10.90;99.90
44117;DHT22;29781;49.480;8.512;2023-03-14T04:42:42;10.90;99.90
44117;DHT22;29781;49.480;8.512;2023-03-14T04:45:08;10.90;99.90
44117;DHT22;29781;49.480;8.512;2023-03-14T04:47:33;10.90;99.90
44117;DHT22;29781;49.480;8.512;2023-03-14T04:49:59;10.90;99.90
44117;DHT22;29781;49.480;8.512;2023-03-14T04:52:24;10.90;99.90
44117;DHT22;29781;49.480;8.512;2023-03-14T04:54:50;10.90;99.90
44117;DHT22;29781;49.480;8.512;2023-03-14T04:57:15;11.50;99.90
44117;DHT22;29781;49.480;8.512;2023-03-14T04:59:41;10.90;99.90
44117;DHT22;29781;49.480;8.512;2023-03-14T05:02:06;10.90;99.90
44117;DHT22;29781;49.480;8.512;2023-03-14T05:04:32;10.90;99.90
44117;DHT22;29781;49.480;8.512;2023-03-14T05:06:59;10.90;99.90
44117;DHT22;29781;49.480;8.512;2023-03-14T05:09:24;10.90;99.90
44117;DHT22;29781;49.480;8.512;2023-03-14T05:11:50;11.00;99.90
44117;DHT22;29781;49.480;8.512;2023-03-14T05:14:15;10.90;99.90
44117;DHT22;29781;49.480;8.512;2023-03-14T05:16:40;10.90;99.90
44117;DHT22;29781;49.480;8.512;2023-03-14T05:19:06;10.90;99.90
44117;DHT22;29781;49.480;8.512;2023-03-14T05:21:31;10.90;99.90
44117;DHT22;29781;49.480;8.512;2023-03-14T05:23:57;10.90;99.90
44117;DHT22;29781;49.480;8.512;2023-03-14T05:26:22;10.90;99.90
44117;DHT22;29781;49.480;8.512;2023-03-14T05:28:48;10.90;99.90
44117;DHT22;29781;49.480;8.512;2023-03-14T05:31:13;10.90;99.90
44117;DHT22;29781;49.480;8.512;2023-03-14T05:33:39;10.90;99.90
44117;DHT22;29781;49.480;8.512;2023-03-14T05:36:04;10.90;99.90
44117;DHT22;29781;49.480;8.512;2023-03-14T05:38:30;10.90;99.90
44117;DHT22;29781;49.480;8.512;2023-03-14T05:40:55;10.90;99.90
44117;DHT22;29781;49.480;8.512;2023-03-14T05:43:21;10.90;99.90
44117;DHT22;29781;49.480;8.512;2023-03-14T05:45:46;10.90;99.90
44117;DHT22;29781;49.480;8.512;2023-03-14T05:48:12;10.90;99.90
44117;DHT22;29781;49.480;8.512;2023-03-14T05:50:37;10.90;99.90
44117;DHT22;29781;49.480;8.512;2023-03-14T05:53:03;10.90;99.90
44117;DHT22;29781;49.480;8.512;2023-03-14T05:55:28;11.00;99.90
44117;DHT22;29781;49.480;8.512;2023-03-14T05:57:54;11.00;99.90
44117;DHT22;29781;49.480;8.512;2023-03-14T06:00:20;11.00;99.90
44117;DHT22;29781;49.480;8.512;2023-03-14T06:02:45;11.00;99.90
44117;DHT22;29781;49.480;8.512;2023-03-14T06:05:11;11.00;99.90
44117;DHT22;29781;49.480;8.512;2023-03-14T06:07:37;11.00;99.90
44117;DHT22;29781;49.480;8.512;2023-03-14T06:10:02;11.10;99.90
44117;DHT22;29781;49.480;8.512;2023-03-14T06:12:28;11.00;99.90
44117;DHT22;29781;49.480;8.512;2023-03-14T06:14:53;11.00;99.90
44117;DHT22;29781;49.480;8.512;2023-03-14T06:17:19;11.00;99.90
44117;DHT22;29781;49.480;8.512;2023-03-14T06:19:44;11.00;99.90
44117;DHT22;29781;49.480;8.512;2023-03-14T06:22:09;11.00;99.90
44117;DHT22;29781;49.480;8.512;2023-03-14T06:24:35;11.00;99.90
44117;DHT22;29781;49.480;8.512;2023-03-14T06:27:00;11.00;99.90
44117;DHT22;29781;49.480;8.512;2023-03-14T06:29:28;11.10;99.90
44117;DHT22;29781;49.480;8.512;2023-03-14T06:31:53;11.10;99.90
44117;DHT22;29781;49.480;8.512;2023-03-14T06:34:19;11.10;99.90
44117;DHT22;29781;49.480;8.512;2023-03-14T06:36:44;11.10;99.90
44117;DHT22;29781;49.480;8.512;2023-03-14T06:39:10;11.10;99.90
44117;DHT22;29781;49.480;8.512;2023-03-14T06:41:35;11.10;99.90
44117;DHT22;29781;49.480;8.512;2023-03-14T06:44:01;11.20;99.90
44117;DHT22;29781;49.480;8.512;2023-03-14T06:46:26;11.20;99.90
44117;DHT22;29781;49.480;8.512;2023-03-14T06:48:52;11.20;99.90
44117;DHT22;29781;49.480;8.512;2023-03-14T06:51:17;11.20;99.90
44117;DHT22;29781;49.480;8.512;2023-03-14T06:53:42;11.20;99.90
44117;DHT22;29781;49.480;8.512;2023-03-14T06:56:08;11.20;99.90
44117;DHT22;29781;49.480;8.512;2023-03-14T06:58:33;11.30;99.90
44117;DHT22;29781;49.480;8.512;2023-03-14T07:00:59;11.20;99.90
44117;DHT22;29781;49.480;8.512;2023-03-14T07:03:24;11.30;99.90
44117;DHT22;29781;49.480;8.512;2023-03-14T07:05:50;11.20;99.90
44117;DHT22;29781;49.480;8.512;2023-03-14T07:08:16;11.20;99.90
44117;DHT22;29781;49.480;8.512;2023-03-14T07:10:41;11.20;99.90
44117;DHT22;29781;49.480;8.512;2023-03-14T07:13:07;11.30;99.90
44117;DHT22;29781;49.480;8.512;2023-03-14T07:15:32;11.30;99.90
44117;DHT22;29781;49.480;8.512;2023-03-14T07:17:58;11.40;99.90
44117;DHT22;29781;49.480;8.512;2023-03-14T07:20:23;11.40;99.90
44117;DHT22;29781;49.480;8.512;2023-03-14T07:22:49;11.50;99.90
44117;DHT22;29781;49.480;8.512;2023-03-14T07:25:14;11.40;99.90
44117;DHT22;29781;49.480;8.512;2023-03-14T07:27:42;11.50;99.90
44117;DHT22;29781;49.480;8.512;2023-03-14T07:30:08;11.50;99.90
44117;DHT22;29781;49.480;8.512;2023-03-14T07:32:33;11.50;99.90
44117;DHT22;29781;49.480;8.512;2023-03-14T07:34:58;11.40;99.90
44117;DHT22;29781;49.480;8.512;2023-03-14T07:37:24;11.50;99.90
44117;DHT22;29781;49.480;8.512;2023-03-14T07:39:49;11.50;99.90
44117;DHT22;29781;49.480;8.512;2023-03-14T07:42:15;11.50;99.90
44117;DHT22;29781;49.480;8.512;2023-03-14T07:44:41;11.50;99.90
44117;DHT22;29781;49.480;8.512;2023-03-14T07:47:06;11.60;99.90
44117;DHT22;29781;49.480;8.512;2023-03-14T07:49:31;11.60;99.90
44117;DHT22;29781;49.480;8.512;2023-03-14T07:51:57;11.50;99.90
44117;DHT22;29781;49.480;8.512;2023-03-14T07:54:23;11.50;99.90
44117;DHT22;29781;49.480;8.512;2023-03-14T07:56:50;11.60;99.90
44117;DHT22;29781;49.480;8.512;2023-03-14T07:59:15;11.60;99.90
44117;DHT22;29781;49.480;8.512;2023-03-14T08:01:41;11.70;99.90
44117;DHT22;29781;49.480;8.512;2023-03-14T08:04:06;11.80;99.90
44117;DHT22;29781;49.480;8.512;2023-03-14T08:06:32;11.70;99.90
44117;DHT22;29781;49.480;8.512;2023-03-14T08:08:57;11.80;99.90
44117;DHT22;29781;49.480;8.512;2023-03-14T08:11:22;11.90;99.90
44117;DHT22;29781;49.480;8.512;2023-03-14T08:13:48;12.00;99.90
44117;DHT22;29781;49.480;8.512;2023-03-14T08:16:16;12.10;99.90
44117;DHT22;29781;49.480;8.512;2023-03-14T08:18:42;12.10;99.90
44117;DHT22;29781;49.480;8.512;2023-03-14T08:21:08;12.20;99.90
44117;DHT22;29781;49.480;8.512;2023-03-14T08:23:35;12.40;99.90
44117;DHT22;29781;49.480;8.512;2023-03-14T08:26:00;12.80;99.90
44117;DHT22;29781;49.480;8.512;2023-03-14T08:28:26;12.80;99.90
44117;DHT22;29781;49.480;8.512;2023-03-14T08:30:56;12.70;99.90
44117;DHT22;29781;49.480;8.512;2023-03-14T08:33:22;12.50;99.90
44117;DHT22;29781;49.480;8.512;2023-03-14T08:35:47;12.40;99.90
44117;DHT22;29781;49.480;8.512;2023-03-14T08:38:13;12.30;99.90
44117;DHT22;29781;49.480;8.512;2023-03-14T08:40:38;12.20;99.90
44117;DHT22;29781;49.480;8.512;2023-03-14T08:43:03;12.30;99.90
44117;DHT22;29781;49.480;8.512;2023-03-14T08:45:29;12.30;99.90
44117;DHT22;29781;49.480;8.512;2023-03-14T08:47:54;12.40;99.90
44117;DHT22;29781;49.480;8.512;2023-03-14T08:50:20;12.40;99.90
44117;DHT22;29781;49.480;8.512;2023-03-14T08:52:45;12.40;99.90
44117;DHT22;29781;49.480;8.512;2023-03-14T08:55:11;12.40;99.90
44117;DHT22;29781;49.480;8.512;2023-03-14T08:57:36;12.60;99.90
44117;DHT22;29781;49.480;8.512;2023-03-14T09:00:02;12.80;99.90
44117;DHT22;29781;49.480;8.512;2023-03-14T09:02:31;12.70;99.90
44117;DHT22;29781;49.480;8.512;2023-03-14T09:04:56;12.70;99.90
44117;DHT22;29781;49.480;8.512;2023-03-14T09:07:21;12.50;99.90
44117;DHT22;29781;49.480;8.512;2023-03-14T09:09:47;12.50;99.90
44117;DHT22;29781;49.480;8.512;2023-03-14T09:12:12;12.40;99.90
44117;DHT22;29781;49.480;8.512;2023-03-14T09:14:38;12.40;99.90
44117;DHT22;29781;49.480;8.512;2023-03-14T09:17:03;12.30;99.90
44117;DHT22;29781;49.480;8.512;2023-03-14T09:19:29;12.40;99.90
44117;DHT22;29781;49.480;8.512;2023-03-14T09:21:54;12.30;99.90
44117;DHT22;29781;49.480;8.512;2023-03-14T09:24:20;12.30;99.90
44117;DHT22;29781;49.480;8.512;2023-03-14T09:26:45;12.40;99.90
44117;DHT22;29781;49.480;8.512;2023-03-14T09:29:11;12.40;99.90
44117;DHT22;29781;49.480;8.512;2023-03-14T09:31:37;12.60;99.90
44117;DHT22;29781;49.480;8.512;2023-03-14T09:34:02;12.70;99.90
44117;DHT22;29781;49.480;8.512;2023-03-14T09:36:28;12.50;99.90
44117;DHT22;29781;49.480;8.512;2023-03-14T09:38:53;12.40;99.90
44117;DHT22;29781;49.480;8.512;2023-03-14T09:41:24;12.30;99.90
44117;DHT22;29781;49.480;8.512;2023-03-14T09:43:51;12.20;99.90
44117;DHT22;29781;49.480;8.512;2023-03-14T09:46:19;12.30;99.90
44117;DHT22;29781;49.480;8.512;2023-03-14T09:48:45;12.30;99.90
44117;DHT22;29781;49.480;8.512;2023-03-14T09:51:12;12.30;99.90
44117;DHT22;29781;49.480;8.512;2023-03-14T09:53:42;12.40;99.90
44117;DHT22;29781;49.480;8.512;2023-03-14T09:56:16;12.50;99.90
44117;DHT22;29781;49.480;8.512;2023-03-14T09:58:43;12.50;99.90
44117;DHT22;29781;49.480;8.512;2023-03-14T10:01:10;12.40;99.90
44117;DHT22;29781;49.480;8.512;2023-03-14T10:03:36;12.40;99.90
44117;DHT22;29781;49.480;8.512;2023-03-14T10:06:01;12.30;99.90
44117;DHT22;29781;49.480;8.512;2023-03-14T10:08:27;12.30;99.90
44117;DHT22;29781;49.480;8.512;2023-03-14T10:10:53;12.30;99.90
44117;DHT22;29781;49.480;8.512;2023-03-14T10:13:20;12.40;99.90
44117;DHT22;29781;49.480;8.512;2023-03-14T10:18:18;12.60;99.90
44117;DHT22;29781;49.480;8.512;2023-03-14T10:20:45;12.70;99.90
44117;DHT22;29781;49.480;8.512;2023-03-14T10:25:37;12.80;99.90
44117;DHT22;29781;49.480;8.512;2023-03-14T10:28:03;12.80;99.90
44117;DHT22;29781;49.480;8.512;2023-03-14T10:30:30;12.70;99.90
44117;DHT22;29781;49.480;8.512;2023-03-14T10:32:59;12.60;99.90
44117;DHT22;29781;49.480;8.512;2023-03-14T10:35:32;12.40;99.90
44117;DHT22;29781;49.480;8.512;2023-03-14T10:38:02;12.50;99.90
44117;DHT22;29781;49.480;8.512;2023-03-14T10:40:30;12.50;99.90
44117;DHT22;29781;49.480;8.512;2023-03-14T10:42:57;12.40;99.90
44117;DHT22;29781;49.480;8.512;2023-03-14T10:45:33;12.20;99.90
44117;DHT22;29781;49.480;8.512;2023-03-14T10:48:05;12.20;99.90
44117;DHT22;29781;49.480;8.512;2023-03-14T10:50:32;12.20;99.90
44117;DHT22;29781;49.480;8.512;2023-03-14T10:52:57;12.10;99.90
44117;DHT22;29781;49.480;8.512;2023-03-14T10:55:26;12.10;99.90
44117;DHT22;29781;49.480;8.512;2023-03-14T10:57:51;12.00;99.90
44117;DHT22;29781;49.480;8.512;2023-03-14T11:00:21;11.70;99.90
44117;DHT22;29781;49.480;8.512;2023-03-14T11:02:49;11.60;99.90
44117;DHT22;29781;49.480;8.512;2023-03-14T11:05:27;11.50;99.90
44117;DHT22;29781;49.480;8.512;2023-03-14T11:07:56;11.40;99.90
44117;DHT22;29781;49.480;8.512;2023-03-14T11:10:38;11.40;99.90
44117;DHT22;29781;49.480;8.512;2023-03-14T11:15:41;11.50;99.90
44117;DHT22;29781;49.480;8.512;2023-03-14T11:24:02;11.60;99.90
44117;DHT22;29781;49.480;8.512;2023-03-14T11:26:19;11.50;99.90
44117;DHT22;29781;49.480;8.512;2023-03-14T11:28:49;11.40;99.90
44117;DHT22;29781;49.480;8.512;2023-03-14T11:33:47;11.40;99.90
44117;DHT22;29781;49.480;8.512;2023-03-14T11:36:20;11.40;99.90
44117;DHT22;29781;49.480;8.512;2023-03-14T11:38:54;11.40;99.90
44117;DHT22;29781;49.480;8.512;2023-03-14T11:43:47;11.50;99.90
44117;DHT22;29781;49.480;8.512;2023-03-14T11:46:21;11.30;99.90
44117;DHT22;29781;49.480;8.512;2023-03-14T11:51:33;11.20;99.90
44117;DHT22;29781;49.480;8.512;2023-03-14T11:56:47;11.10;99.90
44117;DHT22;29781;49.480;8.512;2023-03-14T11:59:16;11.20;99.90
44117;DHT22;29781;49.480;8.512;2023-03-14T12:01:53;11.20;99.90
44117;DHT22;29781;49.480;8.512;2023-03-14T12:04:21;11.10;99.90
44117;DHT22;29781;49.480;8.512;2023-03-14T12:06:49;11.10;99.90
44117;DHT22;29781;49.480;8.512;2023-03-14T12:09:15;11.20;99.90
44117;DHT22;29781;49.480;8.512;2023-03-14T12:16:55;11.10;99.90
44117;DHT22;29781;49.480;8.512;2023-03-14T12:21:48;11.10;99.90
44117;DHT22;29781;49.480;8.512;2023-03-14T12:24:23;11.00;99.90
44117;DHT22;29781;49.480;8.512;2023-03-14T12:26:53;10.90;99.90
44117;DHT22;29781;49.480;8.512;2023-03-14T12:29:20;10.70;99.90
44117;DHT22;29781;49.480;8.512;2023-03-14T12:31:49;10.70;99.90
44117;DHT22;29781;49.480;8.512;2023-03-14T12:42:01;10.60;99.90
44117;DHT22;29781;49.480;8.512;2023-03-14T12:49:48;10.70;99.90
44117;DHT22;29781;49.480;8.512;2023-03-14T12:52:22;10.60;99.90
44117;DHT22;29781;49.480;8.512;2023-03-14T12:54:55;10.60;99.90
44117;DHT22;29781;49.480;8.512;2023-03-14T12:59:55;10.80;99.90
44117;DHT22;29781;49.480;8.512;2023-03-14T13:02:26;10.90;99.90
44117;DHT22;29781;49.480;8.512;2023-03-14T13:05:06;11.10;99.90
44117;DHT22;29781;49.480;8.512;2023-03-14T13:08:01;10.90;99.90
44117;DHT22;29781;49.480;8.512;2023-03-14T13:10:28;10.70;99.90
44117;DHT22;29781;49.480;8.512;2023-03-14T13:17:46;10.50;99.90
44117;DHT22;29781;49.480;8.512;2023-03-14T13:20:16;10.50;99.90
44117;DHT22;29781;49.480;8.512;2023-03-14T13:22:47;10.50;99.90
44117;DHT22;29781;49.480;8.512;2023-03-14T13:25:12;10.40;99.90
44117;DHT22;29781;49.480;8.512;2023-03-14T13:27:38;10.50;99.90
44117;DHT22;29781;49.480;8.512;2023-03-14T13:30:20;10.70;99.90
44117;DHT22;29781;49.480;8.512;2023-03-14T13:32:46;10.70;99.90
44117;DHT22;29781;49.480;8.512;2023-03-14T13:35:20;10.80;99.90
44117;DHT22;29781;49.480;8.512;2023-03-14T13:37:46;10.80;99.90
44117;DHT22;29781;49.480;8.512;2023-03-14T13:40:19;11.10;99.90
44117;DHT22;29781;49.480;8.512;2023-03-14T13:42:45;11.10;99.90
44117;DHT22;29781;49.480;8.512;2023-03-14T13:45:12;11.00;99.90
44117;DHT22;29781;49.480;8.512;2023-03-14T13:47:38;11.00;99.90
44117;DHT22;29781;49.480;8.512;2023-03-14T13:50:03;11.20;99.90
44117;DHT22;29781;49.480;8.512;2023-03-14T13:52:35;11.10;99.90
44117;DHT22;29781;49.480;8.512;2023-03-14T13:55:02;11.00;99.90
44117;DHT22;29781;49.480;8.512;2023-03-14T13:57:42;10.80;99.90
44117;DHT22;29781;49.480;8.512;2023-03-14T14:00:16;10.70;99.90
44117;DHT22;29781;49.480;8.512;2023-03-14T14:02:43;10.50;99.90
44117;DHT22;29781;49.480;8.512;2023-03-14T14:05:10;9.80;99.90
44117;DHT22;29781;49.480;8.512;2023-03-14T14:07:36;10.70;99.90
44117;DHT22;29781;49.480;8.512;2023-03-14T14:10:03;10.60;99.90
44117;DHT22;29781;49.480;8.512;2023-03-14T14:12:33;10.60;99.90
44117;DHT22;29781;49.480;8.512;2023-03-14T14:17:39;10.70;99.90
44117;DHT22;29781;49.480;8.512;2023-03-14T14:20:07;10.80;99.90
44117;DHT22;29781;49.480;8.512;2023-03-14T14:22:33;10.90;99.90
44117;DHT22;29781;49.480;8.512;2023-03-14T14:24:59;10.70;99.90
44117;DHT22;29781;49.480;8.512;2023-03-14T14:30:04;10.60;99.90
44117;DHT22;29781;49.480;8.512;2023-03-14T14:32:37;10.80;99.90
44117;DHT22;29781;49.480;8.512;2023-03-14T14:35:03;10.90;99.90
44117;DHT22;29781;49.480;8.512;2023-03-14T14:37:40;10.90;99.90
44117;DHT22;29781;49.480;8.512;2023-03-14T14:40:08;10.90;99.90
44117;DHT22;29781;49.480;8.512;2023-03-14T14:42:38;10.80;99.90
44117;DHT22;29781;49.480;8.512;2023-03-14T14:45:04;10.90;99.90
44117;DHT22;29781;49.480;8.512;2023-03-14T14:47:31;11.00;99.90
44117;DHT22;29781;49.480;8.512;2023-03-14T14:49:58;11.00;99.90
44117;DHT22;29781;49.480;8.512;2023-03-14T14:52:31;11.00;99.90
44117;DHT22;29781;49.480;8.512;2023-03-14T14:54:58;10.80;99.90
44117;DHT22;29781;49.480;8.512;2023-03-14T14:57:26;10.80;99.90
44117;DHT22;29781;49.480;8.512;2023-03-14T15:00:00;10.70;99.90
44117;DHT22;29781;49.480;8.512;2023-03-14T15:02:30;10.80;99.90
44117;DHT22;29781;49.480;8.512;2023-03-14T15:04:57;10.80;99.90
44117;DHT22;29781;49.480;8.512;2023-03-14T15:07:22;10.90;99.90
44117;DHT22;29781;49.480;8.512;2023-03-14T15:09:48;10.80;99.90
44117;DHT22;29781;49.480;8.512;2023-03-14T15:12:13;10.80;99.90
44117;DHT22;29781;49.480;8.512;2023-03-14T15:14:39;10.90;99.90
44117;DHT22;29781;49.480;8.512;2023-03-14T15:17:08;10.70;99.90
44117;DHT22;29781;49.480;8.512;2023-03-14T15:19:35;10.70;99.90
44117;DHT22;29781;49.480;8.512;2023-03-14T15:22:01;10.80;99.90
44117;DHT22;29781;49.480;8.512;2023-03-14T15:24:26;10.90;99.90
44117;DHT22;29781;49.480;8.512;2023-03-14T15:26:52;10.80;99.90
44117;DHT22;29781;49.480;8.512;2023-03-14T15:29:17;10.80;99.90
44117;DHT22;29781;49.480;8.512;2023-03-14T15:31:43;10.70;99.90
44117;DHT22;29781;49.480;8.512;2023-03-14T15:34:09;10.70;99.90
44117;DHT22;29781;49.480;8.512;2023-03-14T15:36:35;10.90;99.90
44117;DHT22;29781;49.480;8.512;2023-03-14T15:39:01;10.90;99.90
44117;DHT22;29781;49.480;8.512;2023-03-14T15:41:27;10.80;99.90
44117;DHT22;29781;49.480;8.512;2023-03-14T15:43:53;10.80;99.90
44117;DHT22;29781;49.480;8.512;2023-03-14T15:46:20;11.00;99.90
44117;DHT22;29781;49.480;8.512;2023-03-14T15:48:47;11.10;99.90
44117;DHT22;29781;49.480;8.512;2023-03-14T15:51:13;11.40;99.90
44117;DHT22;29781;49.480;8.512;2023-03-14T15:53:38;11.40;99.90
44117;DHT22;29781;49.480;8.512;2023-03-14T15:56:05;11.40;99.90
44117;DHT22;29781;49.480;8.512;2023-03-14T15:58:31;11.40;99.90
44117;DHT22;29781;49.480;8.512;2023-03-14T16:01:00;11.30;99.90
44117;DHT22;29781;49.480;8.512;2023-03-14T16:03:26;11.10;99.90
44117;DHT22;29781;49.480;8.512;2023-03-14T16:05:52;11.10;99.90
44117;DHT22;29781;49.480;8.512;2023-03-14T16:08:17;11.20;99.90
44117;DHT22;29781;49.480;8.512;2023-03-14T16:10:43;11.10;99.90
44117;DHT22;29781;49.480;8.512;2023-03-14T16:13:08;10.90;99.90
44117;DHT22;29781;49.480;8.512;2023-03-14T16:15:34;10.90;99.90
44117;DHT22;29781;49.480;8.512;2023-03-14T16:17:59;10.90;99.90
44117;DHT22;29781;49.480;8.512;2023-03-14T16:20:25;10.80;99.90
44117;DHT22;29781;49.480;8.512;2023-03-14T16:22:51;11.00;99.90
44117;DHT22;29781;49.480;8.512;2023-03-14T16:25:16;10.80;99.90
44117;DHT22;29781;49.480;8.512;2023-03-14T16:27:43;10.70;99.90
44117;DHT22;29781;49.480;8.512;2023-03-14T16:30:08;10.70;99.90
44117;DHT22;29781;49.480;8.512;2023-03-14T16:32:35;10.60;99.90
44117;DHT22;29781;49.480;8.512;2023-03-14T16:35:00;10.60;99.90
44117;DHT22;29781;49.480;8.512;2023-03-14T16:37:26;10.50;99.90
44117;DHT22;29781;49.480;8.512;2023-03-14T16:39:52;10.50;99.90
44117;DHT22;29781;49.480;8.512;2023-03-14T16:42:18;10.50;99.90
44117;DHT22;29781;49.480;8.512;2023-03-14T16:44:43;10.60;99.90
44117;DHT22;29781;49.480;8.512;2023-03-14T16:47:09;10.50;99.90
44117;DHT22;29781;49.480;8.512;2023-03-14T16:49:35;10.50;99.90
44117;DHT22;29781;49.480;8.512;2023-03-14T16:52:00;10.50;99.90